sensor_id;sensor_type;location;lat;lon;timestamp;pressure;altitude;pressure_sealevel;temperature;humidity
12360;BME280;6244;51.460;7.090;2023-09-19T00:00:43;99814.25;;;15.48;83.73
12360;BME280;6244;51.460;7.090;2023-09-19T00:05:42;99811.88;;;15.45;81.97
12360;BME280;6244;51.460;7.090;2023-09-19T00:10:39;99834.47;;;15.28;82.56
12360;BME280;6244;51.460;7.090;2023-09-19T00:15:39;99837.34;;;15.25;82.60
12360;BME280;6244;51.460;7.090;2023-09-19T00:20:36;99848.31;;;15.20;82.53
12360;BME280;6244;51.460;7.090;2023-09-19T00:25:34;99849.00;;;15.22;82.58
12360;BME280;6244;51.460;7.090;2023-09-19T00:30:32;99851.63;;;15.02;83.38
12360;BME280;6244;51.460;7.090;2023-09-19T00:35:30;99847.41;;;14.99;83.79
12360;BME280;6244;51.460;7.090;2023-09-19T00:40:26;99853.66;;;14.98;83.17
12360;BME280;6244;51.460;7.090;2023-09-19T00:45:24;99853.63;;;15.09;83.33
12360;BME280;6244;51.460;7.090;2023-09-19T00:50:22;99861.69;;;15.08;81.99
12360;BME280;6244;51.460;7.090;2023-09-19T00:55:23;99860.44;;;14.91;82.88
12360;BME280;6244;51.460;7.090;2023-09-19T01:00:20;99861.25;;;15.03;81.90
12360;BME280;6244;51.460;7.090;2023-09-19T01:05:18;99867.72;;;14.98;81.80
12360;BME280;6244;51.460;7.090;2023-09-19T01:10:17;99881.72;;;14.78;82.62
12360;BME280;6244;51.460;7.090;2023-09-19T01:15:25;99877.44;;;14.98;81.89
12360;BME280;6244;51.460;7.090;2023-09-19T01:20:34;99886.38;;;14.86;82.10
12360;BME280;6244;51.460;7.090;2023-09-19T01:25:48;99883.50;;;14.89;81.44
12360;BME280;6244;51.460;7.090;2023-09-19T01:30:52;99889.78;;;14.77;81.89
12360;BME280;6244;51.460;7.090;2023-09-19T01:35:53;99901.31;;;14.64;82.42
12360;BME280;6244;51.460;7.090;2023-09-19T01:40:57;99897.47;;;14.68;81.97
12360;BME280;6244;51.460;7.090;2023-09-19T01:46:05;99914.72;;;14.73;81.58
12360;BME280;6244;51.460;7.090;2023-09-19T01:51:07;99914.38;;;14.77;81.66
12360;BME280;6244;51.460;7.090;2023-09-19T01:56:07;99915.38;;;14.65;81.30
12360;BME280;6244;51.460;7.090;2023-09-19T02:01:11;99919.75;;;14.76;80.68
12360;BME280;6244;51.460;7.090;2023-09-19T02:06:13;99921.19;;;14.91;79.21
12360;BME280;6244;51.460;7.090;2023-09-19T02:11:11;99924.22;;;14.75;80.41
12360;BME280;6244;51.460;7.090;2023-09-19T02:16:09;99928.91;;;14.72;79.95
12360;BME280;6244;51.460;7.090;2023-09-19T02:21:07;99935.41;;;14.67;80.08
12360;BME280;6244;51.460;7.090;2023-09-19T02:26:05;99941.28;;;14.71;79.55
12360;BME280;6244;51.460;7.090;2023-09-19T02:31:01;99943.66;;;14.63;79.94
12360;BME280;6244;51.460;7.090;2023-09-19T02:36:01;99959.16;;;14.56;79.70
12360;BME280;6244;51.460;7.090;2023-09-19T02:40:59;99957.25;;;14.47;80.21
12360;BME280;6244;51.460;7.090;2023-09-19T02:45:55;99957.91;;;14.38;81.07
12360;BME280;6244;51.460;7.090;2023-09-19T02:50:52;99962.28;;;14.39;80.88
12360;BME280;6244;51.460;7.090;2023-09-19T02:55:50;99967.44;;;14.40;79.94
12360;BME280;6244;51.460;7.090;2023-09-19T03:00:49;99967.81;;;14.47;79.72
12360;BME280;6244;51.460;7.090;2023-09-19T03:05:46;99968.88;;;14.45;78.91
12360;BME280;6244;51.460;7.090;2023-09-19T03:10:45;99986.47;;;14.33;78.19
12360;BME280;6244;51.460;7.090;2023-09-19T03:15:43;99985.28;;;14.37;77.77
12360;BME280;6244;51.460;7.090;2023-09-19T03:20:42;99986.63;;;14.43;76.05
12360;BME280;6244;51.460;7.090;2023-09-19T03:25:38;99980.94;;;14.25;76.04
12360;BME280;6244;51.460;7.090;2023-09-19T03:30:35;99986.97;;;14.27;75.54
12360;BME280;6244;51.460;7.090;2023-09-19T03:35:35;99987.19;;;14.24;75.85
12360;BME280;6244;51.460;7.090;2023-09-19T03:40:32;99985.03;;;14.18;76.05
12360;BME280;6244;51.460;7.090;2023-09-19T03:45:28;99982.53;;;14.27;75.57
12360;BME280;6244;51.460;7.090;2023-09-19T03:50:25;99981.88;;;14.13;75.83
12360;BME280;6244;51.460;7.090;2023-09-19T03:55:23;99988.00;;;14.02;76.33
12360;BME280;6244;51.460;7.090;2023-09-19T04:00:19;99985.16;;;14.16;75.51
12360;BME280;6244;51.460;7.090;2023-09-19T04:05:19;99982.94;;;13.99;75.88
12360;BME280;6244;51.460;7.090;2023-09-19T04:10:16;99984.94;;;13.84;76.67
12360;BME280;6244;51.460;7.090;2023-09-19T04:15:14;99984.81;;;13.86;76.60
12360;BME280;6244;51.460;7.090;2023-09-19T04:20:11;99989.41;;;13.95;76.31
12360;BME280;6244;51.460;7.090;2023-09-19T04:25:08;99985.94;;;13.94;76.60
12360;BME280;6244;51.460;7.090;2023-09-19T04:30:06;99992.63;;;13.87;76.50
12360;BME280;6244;51.460;7.090;2023-09-19T04:35:09;99986.69;;;13.72;77.85
12360;BME280;6244;51.460;7.090;2023-09-19T04:40:07;99991.44;;;13.91;77.57
12360;BME280;6244;51.460;7.090;2023-09-19T04:45:08;100000.09;;;13.93;77.84
12360;BME280;6244;51.460;7.090;2023-09-19T04:50:09;99987.81;;;13.81;77.78
12360;BME280;6244;51.460;7.090;2023-09-19T04:55:08;99989.25;;;13.85;78.09
12360;BME280;6244;51.460;7.090;2023-09-19T05:00:06;100001.38;;;13.88;78.01
12360;BME280;6244;51.460;7.090;2023-09-19T05:05:09;100003.56;;;13.94;78.03
12360;BME280;6244;51.460;7.090;2023-09-19T05:10:07;100021.19;;;13.93;77.86
12360;BME280;6244;51.460;7.090;2023-09-19T05:15:05;100028.09;;;13.83;78.49
12360;BME280;6244;51.460;7.090;2023-09-19T05:20:02;100035.22;;;13.94;78.17
12360;BME280;6244;51.460;7.090;2023-09-19T05:25:12;100045.81;;;14.05;77.79
12360;BME280;6244;51.460;7.090;2023-09-19T05:30:12;100058.88;;;14.06;77.57
12360;BME280;6244;51.460;7.090;2023-09-19T05:35:11;100060.41;;;13.98;77.88
12360;BME280;6244;51.460;7.090;2023-09-19T05:40:09;100063.09;;;13.85;77.86
12360;BME280;6244;51.460;7.090;2023-09-19T05:45:08;100076.09;;;13.99;77.22
12360;BME280;6244;51.460;7.090;2023-09-19T05:50:08;100077.56;;;14.03;77.16
12360;BME280;6244;51.460;7.090;2023-09-19T05:55:05;100086.34;;;14.04;77.03
12360;BME280;6244;51.460;7.090;2023-09-19T06:00:03;100094.13;;;14.05;76.56
12360;BME280;6244;51.460;7.090;2023-09-19T06:05:06;100100.00;;;14.09;77.09
12360;BME280;6244;51.460;7.090;2023-09-19T06:10:06;100094.28;;;14.15;76.96
12360;BME280;6244;51.460;7.090;2023-09-19T06:15:03;100087.53;;;14.11;75.96
12360;BME280;6244;51.460;7.090;2023-09-19T06:20:00;100083.38;;;14.20;75.79
12360;BME280;6244;51.460;7.090;2023-09-19T06:25:01;100077.88;;;14.23;75.61
12360;BME280;6244;51.460;7.090;2023-09-19T06:29:57;100097.81;;;14.27;75.92
12360;BME280;6244;51.460;7.090;2023-09-19T06:34:54;100089.47;;;14.44;75.14
12360;BME280;6244;51.460;7.090;2023-09-19T06:39:50;100092.59;;;14.49;75.17
12360;BME280;6244;51.460;7.090;2023-09-19T06:44:48;100077.38;;;14.53;74.92
12360;BME280;6244;51.460;7.090;2023-09-19T06:49:45;100095.47;;;14.46;74.80
12360;BME280;6244;51.460;7.090;2023-09-19T06:54:56;100093.69;;;14.58;75.02
12360;BME280;6244;51.460;7.090;2023-09-19T06:59:54;100113.41;;;14.65;74.19
12360;BME280;6244;51.460;7.090;2023-09-19T07:04:51;100092.38;;;14.52;74.29
12360;BME280;6244;51.460;7.090;2023-09-19T07:09:47;100102.34;;;14.60;74.85
12360;BME280;6244;51.460;7.090;2023-09-19T07:14:44;100101.78;;;14.79;73.99
12360;BME280;6244;51.460;7.090;2023-09-19T07:19:44;100121.69;;;14.72;74.63
12360;BME280;6244;51.460;7.090;2023-09-19T07:24:43;100133.72;;;14.98;74.47
12360;BME280;6244;51.460;7.090;2023-09-19T07:29:40;100121.72;;;15.05;73.86
12360;BME280;6244;51.460;7.090;2023-09-19T07:34:37;100124.25;;;15.07;73.12
12360;BME280;6244;51.460;7.090;2023-09-19T07:39:35;100116.44;;;15.05;73.99
12360;BME280;6244;51.460;7.090;2023-09-19T07:44:32;100124.25;;;15.18;74.05
12360;BME280;6244;51.460;7.090;2023-09-19T07:49:28;100116.78;;;15.23;73.08
12360;BME280;6244;51.460;7.090;2023-09-19T07:54:25;100118.25;;;15.27;72.97
12360;BME280;6244;51.460;7.090;2023-09-19T07:59:27;100123.13;;;15.54;72.39
12360;BME280;6244;51.460;7.090;2023-09-19T08:04:23;100127.22;;;15.69;71.59
12360;BME280;6244;51.460;7.090;2023-09-19T08:09:21;100133.34;;;15.70;72.07
12360;BME280;6244;51.460;7.090;2023-09-19T08:14:18;100147.13;;;15.84;71.25
12360;BME280;6244;51.460;7.090;2023-09-19T08:19:16;100152.38;;;16.07;70.21
12360;BME280;6244;51.460;7.090;2023-09-19T08:24:13;100150.69;;;16.06;70.68
12360;BME280;6244;51.460;7.090;2023-09-19T08:29:10;100150.00;;;15.93;70.12
12360;BME280;6244;51.460;7.090;2023-09-19T08:34:07;100148.47;;;15.90;71.09
12360;BME280;6244;51.460;7.090;2023-09-19T08:39:05;100151.72;;;16.47;68.99
12360;BME280;6244;51.460;7.090;2023-09-19T08:44:01;100162.91;;;17.13;67.08
12360;BME280;6244;51.460;7.090;2023-09-19T08:49:03;100156.59;;;17.75;64.83
12360;BME280;6244;51.460;7.090;2023-09-19T08:54:03;100162.81;;;17.64;64.26
12360;BME280;6244;51.460;7.090;2023-09-19T08:59:03;100174.50;;;17.52;63.28
12360;BME280;6244;51.460;7.090;2023-09-19T09:04:01;100168.47;;;17.40;64.20
12360;BME280;6244;51.460;7.090;2023-09-19T09:08:58;100173.91;;;17.79;62.68
12360;BME280;6244;51.460;7.090;2023-09-19T09:13:55;100167.13;;;18.05;62.99
12360;BME280;6244;51.460;7.090;2023-09-19T09:18:54;100150.63;;;18.21;61.37
12360;BME280;6244;51.460;7.090;2023-09-19T09:23:50;100153.59;;;18.37;60.80
12360;BME280;6244;51.460;7.090;2023-09-19T09:28:48;100147.13;;;18.69;58.18
12360;BME280;6244;51.460;7.090;2023-09-19T09:33:54;100156.47;;;18.92;58.56
12360;BME280;6244;51.460;7.090;2023-09-19T09:38:50;100139.44;;;19.77;53.39
12360;BME280;6244;51.460;7.090;2023-09-19T09:43:50;100133.66;;;19.64;56.08
12360;BME280;6244;51.460;7.090;2023-09-19T09:48:48;100149.66;;;19.17;56.20
12360;BME280;6244;51.460;7.090;2023-09-19T09:54:11;100143.31;;;18.91;55.34
12360;BME280;6244;51.460;7.090;2023-09-19T09:59:09;100154.66;;;19.30;54.64
12360;BME280;6244;51.460;7.090;2023-09-19T10:04:26;100148.16;;;19.42;55.39
12360;BME280;6244;51.460;7.090;2023-09-19T10:09:26;100142.00;;;19.42;53.59
12360;BME280;6244;51.460;7.090;2023-09-19T10:14:27;100137.97;;;20.10;51.93
12360;BME280;6244;51.460;7.090;2023-09-19T10:19:29;100132.53;;;20.20;51.84
12360;BME280;6244;51.460;7.090;2023-09-19T10:24:33;100125.38;;;20.56;51.14
12360;BME280;6244;51.460;7.090;2023-09-19T10:29:32;100115.78;;;21.23;48.75
12360;BME280;6244;51.460;7.090;2023-09-19T10:34:31;100113.72;;;20.39;50.71
12360;BME280;6244;51.460;7.090;2023-09-19T10:39:32;100125.97;;;19.97;52.40
12360;BME280;6244;51.460;7.090;2023-09-19T10:44:29;100121.81;;;20.47;49.74
12360;BME280;6244;51.460;7.090;2023-09-19T10:49:27;100122.94;;;19.91;51.73
12360;BME280;6244;51.460;7.090;2023-09-19T10:54:28;100120.34;;;19.54;51.77
12360;BME280;6244;51.460;7.090;2023-09-19T10:59:29;100118.34;;;19.39;51.50
12360;BME280;6244;51.460;7.090;2023-09-19T11:04:31;100104.16;;;20.46;49.19
12360;BME280;6244;51.460;7.090;2023-09-19T11:09:48;100101.19;;;20.49;49.76
12360;BME280;6244;51.460;7.090;2023-09-19T11:14:49;100110.50;;;21.05;47.09
12360;BME280;6244;51.460;7.090;2023-09-19T11:20:19;100105.16;;;20.97;47.95
12360;BME280;6244;51.460;7.090;2023-09-19T11:25:44;100088.78;;;20.92;47.30
12360;BME280;6244;51.460;7.090;2023-09-19T11:30:46;100109.91;;;20.86;47.25
12360;BME280;6244;51.460;7.090;2023-09-19T11:35:59;100102.84;;;20.76;48.32
12360;BME280;6244;51.460;7.090;2023-09-19T11:46:27;100103.84;;;20.14;48.97
12360;BME280;6244;51.460;7.090;2023-09-19T11:51:24;100118.78;;;20.68;48.00
12360;BME280;6244;51.460;7.090;2023-09-19T11:56:24;100112.09;;;20.64;48.04
12360;BME280;6244;51.460;7.090;2023-09-19T12:01:25;100122.28;;;20.69;47.50
12360;BME280;6244;51.460;7.090;2023-09-19T12:06:26;100115.50;;;20.48;48.21
12360;BME280;6244;51.460;7.090;2023-09-19T12:11:23;100103.78;;;20.23;48.10
12360;BME280;6244;51.460;7.090;2023-09-19T12:16:22;100074.38;;;20.77;48.05
12360;BME280;6244;51.460;7.090;2023-09-19T12:21:28;100079.13;;;20.65;47.09
12360;BME280;6244;51.460;7.090;2023-09-19T12:26:27;100073.31;;;20.44;47.40
12360;BME280;6244;51.460;7.090;2023-09-19T12:31:24;100075.31;;;20.06;47.07
12360;BME280;6244;51.460;7.090;2023-09-19T12:36:22;100063.22;;;19.94;48.87
12360;BME280;6244;51.460;7.090;2023-09-19T12:41:26;100065.81;;;19.86;47.53
12360;BME280;6244;51.460;7.090;2023-09-19T12:46:23;100041.91;;;19.94;47.66
12360;BME280;6244;51.460;7.090;2023-09-19T12:51:20;100063.66;;;20.07;47.03
12360;BME280;6244;51.460;7.090;2023-09-19T12:56:19;100044.50;;;20.04;46.93
12360;BME280;6244;51.460;7.090;2023-09-19T13:01:20;100049.22;;;19.92;46.35
12360;BME280;6244;51.460;7.090;2023-09-19T13:06:35;100058.19;;;20.09;47.14
12360;BME280;6244;51.460;7.090;2023-09-19T13:11:36;100041.84;;;20.04;46.46
12360;BME280;6244;51.460;7.090;2023-09-19T13:16:52;100037.19;;;20.23;46.71
12360;BME280;6244;51.460;7.090;2023-09-19T13:21:51;100040.50;;;20.26;47.78
12360;BME280;6244;51.460;7.090;2023-09-19T13:26:49;100040.50;;;20.43;46.99
12360;BME280;6244;51.460;7.090;2023-09-19T13:31:48;100048.28;;;20.63;46.72
12360;BME280;6244;51.460;7.090;2023-09-19T13:36:46;100057.25;;;20.88;45.77
12360;BME280;6244;51.460;7.090;2023-09-19T13:41:44;100041.72;;;20.83;46.65
12360;BME280;6244;51.460;7.090;2023-09-19T13:46:41;100045.09;;;20.85;45.68
12360;BME280;6244;51.460;7.090;2023-09-19T13:51:42;100046.69;;;20.26;47.31
12360;BME280;6244;51.460;7.090;2023-09-19T13:56:39;100042.16;;;20.01;47.93
12360;BME280;6244;51.460;7.090;2023-09-19T14:01:35;100052.66;;;19.67;47.84
12360;BME280;6244;51.460;7.090;2023-09-19T14:06:32;100056.09;;;19.49;49.40
12360;BME280;6244;51.460;7.090;2023-09-19T14:11:30;100055.56;;;19.46;50.28
12360;BME280;6244;51.460;7.090;2023-09-19T14:16:26;100056.06;;;19.31;50.85
12360;BME280;6244;51.460;7.090;2023-09-19T14:21:25;100040.66;;;19.35;50.90
12360;BME280;6244;51.460;7.090;2023-09-19T14:26:22;100047.78;;;19.34;51.73
12360;BME280;6244;51.460;7.090;2023-09-19T14:31:20;100052.03;;;19.27;51.89
12360;BME280;6244;51.460;7.090;2023-09-19T14:36:17;100050.75;;;19.31;51.49
12360;BME280;6244;51.460;7.090;2023-09-19T14:41:14;100053.75;;;19.19;52.14
12360;BME280;6244;51.460;7.090;2023-09-19T14:46:10;100048.09;;;19.31;52.42
12360;BME280;6244;51.460;7.090;2023-09-19T14:51:09;100048.69;;;19.25;52.13
12360;BME280;6244;51.460;7.090;2023-09-19T14:56:08;100057.56;;;19.16;52.98
12360;BME280;6244;51.460;7.090;2023-09-19T15:01:06;100077.94;;;18.98;52.88
12360;BME280;6244;51.460;7.090;2023-09-19T15:06:04;100058.22;;;18.91;54.07
12360;BME280;6244;51.460;7.090;2023-09-19T15:11:02;100058.41;;;18.80;54.14
12360;BME280;6244;51.460;7.090;2023-09-19T15:16:03;100043.47;;;18.69;54.52
12360;BME280;6244;51.460;7.090;2023-09-19T15:21:00;100051.19;;;18.62;54.99
12360;BME280;6244;51.460;7.090;2023-09-19T15:25:58;100046.13;;;18.69;55.00
12360;BME280;6244;51.460;7.090;2023-09-19T15:30:59;100040.81;;;18.69;54.39
12360;BME280;6244;51.460;7.090;2023-09-19T15:36:03;100035.78;;;18.75;54.35
12360;BME280;6244;51.460;7.090;2023-09-19T15:41:00;100043.06;;;18.73;54.37
12360;BME280;6244;51.460;7.090;2023-09-19T15:45:56;100043.28;;;18.90;54.03
12360;BME280;6244;51.460;7.090;2023-09-19T15:50:54;100038.25;;;18.87;53.77
12360;BME280;6244;51.460;7.090;2023-09-19T15:55:51;100024.25;;;18.85;53.57
12360;BME280;6244;51.460;7.090;2023-09-19T16:00:47;100027.69;;;18.95;54.20
12360;BME280;6244;51.460;7.090;2023-09-19T16:05:44;100025.84;;;19.05;53.55
12360;BME280;6244;51.460;7.090;2023-09-19T16:10:42;100037.31;;;18.78;54.30
12360;BME280;6244;51.460;7.090;2023-09-19T16:15:41;100028.66;;;18.57;54.69
12360;BME280;6244;51.460;7.090;2023-09-19T16:20:39;100024.25;;;18.38;55.78
12360;BME280;6244;51.460;7.090;2023-09-19T16:25:36;100029.00;;;18.34;55.37
12360;BME280;6244;51.460;7.090;2023-09-19T16:30:33;100022.84;;;18.34;55.99
12360;BME280;6244;51.460;7.090;2023-09-19T16:35:30;100030.66;;;18.35;55.24
12360;BME280;6244;51.460;7.090;2023-09-19T16:40:27;100030.41;;;18.29;55.82
12360;BME280;6244;51.460;7.090;2023-09-19T16:45:23;100017.00;;;18.30;56.47
12360;BME280;6244;51.460;7.090;2023-09-19T16:50:21;100023.56;;;18.26;56.46
12360;BME280;6244;51.460;7.090;2023-09-19T16:55:18;100041.34;;;18.26;56.55
12360;BME280;6244;51.460;7.090;2023-09-19T17:00:16;100014.19;;;18.22;56.73
12360;BME280;6244;51.460;7.090;2023-09-19T17:05:15;100012.53;;;18.21;56.63
12360;BME280;6244;51.460;7.090;2023-09-19T17:10:15;100011.53;;;18.22;57.36
12360;BME280;6244;51.460;7.090;2023-09-19T17:15:11;100025.66;;;18.23;56.95
12360;BME280;6244;51.460;7.090;2023-09-19T17:20:08;100018.28;;;18.16;57.42
12360;BME280;6244;51.460;7.090;2023-09-19T17:25:05;100015.78;;;18.15;57.44
12360;BME280;6244;51.460;7.090;2023-09-19T17:30:05;100021.09;;;18.15;57.73
12360;BME280;6244;51.460;7.090;2023-09-19T17:35:03;100028.06;;;18.16;57.88
12360;BME280;6244;51.460;7.090;2023-09-19T17:39:59;100016.47;;;18.17;57.77
12360;BME280;6244;51.460;7.090;2023-09-19T17:44:59;100022.47;;;18.19;57.14
12360;BME280;6244;51.460;7.090;2023-09-19T17:49:57;100023.59;;;18.16;57.33
12360;BME280;6244;51.460;7.090;2023-09-19T17:54:56;100015.63;;;18.16;57.08
12360;BME280;6244;51.460;7.090;2023-09-19T17:59:53;100024.72;;;18.14;57.21
12360;BME280;6244;51.460;7.090;2023-09-19T18:04:50;100028.34;;;18.13;57.35
12360;BME280;6244;51.460;7.090;2023-09-19T18:09:48;100037.56;;;18.09;57.29
12360;BME280;6244;51.460;7.090;2023-09-19T18:14:44;100032.41;;;18.07;57.60
12360;BME280;6244;51.460;7.090;2023-09-19T18:19:41;100046.66;;;18.06;57.17
12360;BME280;6244;51.460;7.090;2023-09-19T18:24:37;100045.66;;;18.07;57.49
12360;BME280;6244;51.460;7.090;2023-09-19T18:29:36;100047.63;;;18.05;57.27
12360;BME280;6244;51.460;7.090;2023-09-19T18:34:37;100043.16;;;18.06;57.36
12360;BME280;6244;51.460;7.090;2023-09-19T18:39:34;100047.94;;;18.02;57.83
12360;BME280;6244;51.460;7.090;2023-09-19T18:44:31;100053.38;;;18.01;57.48
12360;BME280;6244;51.460;7.090;2023-09-19T18:49:29;100058.41;;;18.04;57.40
12360;BME280;6244;51.460;7.090;2023-09-19T18:54:26;100045.97;;;17.95;57.43
12360;BME280;6244;51.460;7.090;2023-09-19T18:59:24;100036.19;;;17.85;57.78
12360;BME280;6244;51.460;7.090;2023-09-19T19:04:21;100048.19;;;17.80;58.05
12360;BME280;6244;51.460;7.090;2023-09-19T19:09:20;100047.78;;;17.75;58.35
12360;BME280;6244;51.460;7.090;2023-09-19T19:14:16;100031.97;;;17.73;58.23
12360;BME280;6244;51.460;7.090;2023-09-19T19:19:13;100034.25;;;17.78;58.21
12360;BME280;6244;51.460;7.090;2023-09-19T19:24:11;100046.97;;;17.74;58.58
12360;BME280;6244;51.460;7.090;2023-09-19T19:29:11;100046.66;;;17.77;58.53
12360;BME280;6244;51.460;7.090;2023-09-19T19:34:08;100045.25;;;17.73;58.63
12360;BME280;6244;51.460;7.090;2023-09-19T19:39:04;100047.91;;;17.73;58.95
12360;BME280;6244;51.460;7.090;2023-09-19T19:44:01;100047.47;;;17.68;58.81
12360;BME280;6244;51.460;7.090;2023-09-19T19:48:59;100061.00;;;17.65;59.05
12360;BME280;6244;51.460;7.090;2023-09-19T19:53:56;100052.78;;;17.68;59.04
12360;BME280;6244;51.460;7.090;2023-09-19T19:58:53;100064.50;;;17.66;59.47
12360;BME280;6244;51.460;7.090;2023-09-19T20:03:49;100064.50;;;17.66;59.12
12360;BME280;6244;51.460;7.090;2023-09-19T20:08:48;100061.59;;;17.69;59.15
12360;BME280;6244;51.460;7.090;2023-09-19T20:13:45;100070.78;;;17.65;59.45
12360;BME280;6244;51.460;7.090;2023-09-19T20:18:41;100052.34;;;17.63;59.57
12360;BME280;6244;51.460;7.090;2023-09-19T20:23:38;100058.50;;;17.64;59.77
12360;BME280;6244;51.460;7.090;2023-09-19T20:28:36;100061.84;;;17.66;59.79
12360;BME280;6244;51.460;7.090;2023-09-19T20:33:34;100072.91;;;17.71;59.76
12360;BME280;6244;51.460;7.090;2023-09-19T20:38:33;100059.19;;;17.66;59.63
12360;BME280;6244;51.460;7.090;2023-09-19T20:43:30;100051.63;;;17.61;60.49
12360;BME280;6244;51.460;7.090;2023-09-19T20:48:30;100055.56;;;17.57;60.37
12360;BME280;6244;51.460;7.090;2023-09-19T20:53:26;100050.09;;;17.58;60.46
12360;BME280;6244;51.460;7.090;2023-09-19T20:58:23;100047.06;;;17.63;60.62
12360;BME280;6244;51.460;7.090;2023-09-19T21:03:20;100048.16;;;17.60;60.66
12360;BME280;6244;51.460;7.090;2023-09-19T21:08:18;100046.34;;;17.51;61.12
12360;BME280;6244;51.460;7.090;2023-09-19T21:19:16;100043.94;;;17.39;61.90
12360;BME280;6244;51.460;7.090;2023-09-19T21:24:33;100048.97;;;17.42;61.90
12360;BME280;6244;51.460;7.090;2023-09-19T21:29:32;100043.81;;;17.40;62.30
12360;BME280;6244;51.460;7.090;2023-09-19T21:34:29;100034.72;;;17.43;62.21
12360;BME280;6244;51.460;7.090;2023-09-19T21:39:26;100040.59;;;17.37;62.61
12360;BME280;6244;51.460;7.090;2023-09-19T21:44:23;100038.78;;;17.37;62.71
12360;BME280;6244;51.460;7.090;2023-09-19T21:49:20;100039.19;;;17.32;62.75
12360;BME280;6244;51.460;7.090;2023-09-19T21:54:17;100046.28;;;17.32;62.90
12360;BME280;6244;51.460;7.090;2023-09-19T21:59:14;100038.06;;;17.35;63.16
12360;BME280;6244;51.460;7.090;2023-09-19T22:04:12;100017.56;;;17.37;63.16
12360;BME280;6244;51.460;7.090;2023-09-19T22:09:08;100036.69;;;17.41;62.98
12360;BME280;6244;51.460;7.090;2023-09-19T22:14:05;100045.91;;;17.37;63.10
12360;BME280;6244;51.460;7.090;2023-09-19T22:19:02;100034.16;;;17.29;63.41
12360;BME280;6244;51.460;7.090;2023-09-19T22:24:00;100047.44;;;17.39;63.53
12360;BME280;6244;51.460;7.090;2023-09-19T22:28:56;100037.50;;;17.31;63.73
12360;BME280;6244;51.460;7.090;2023-09-19T22:33:54;100042.13;;;17.39;63.37
12360;BME280;6244;51.460;7.090;2023-09-19T22:38:51;100035.72;;;17.42;63.34
12360;BME280;6244;51.460;7.090;2023-09-19T22:43:50;100028.44;;;17.44;63.12
12360;BME280;6244;51.460;7.090;2023-09-19T22:48:50;100023.69;;;17.47;63.24
12360;BME280;6244;51.460;7.090;2023-09-19T22:53:47;100025.13;;;17.51;63.31
12360;BME280;6244;51.460;7.090;2023-09-19T22:58:50;100022.88;;;17.56;62.96
12360;BME280;6244;51.460;7.090;2023-09-19T23:03:47;100017.28;;;17.59;63.42
12360;BME280;6244;51.460;7.090;2023-09-19T23:08:49;100019.78;;;17.61;63.34
12360;BME280;6244;51.460;7.090;2023-09-19T23:13:49;100013.78;;;17.59;63.44
12360;BME280;6244;51.460;7.090;2023-09-19T23:18:47;100026.09;;;17.60;63.44
12360;BME280;6244;51.460;7.090;2023-09-19T23:23:45;100025.41;;;17.68;63.47
12360;BME280;6244;51.460;7.090;2023-09-19T23:28:43;100029.88;;;17.67;63.51
12360;BME280;6244;51.460;7.090;2023-09-19T23:33:44;100026.53;;;17.65;63.76
12360;BME280;6244;51.460;7.090;2023-09-19T23:38:41;100027.50;;;17.64;63.89
12360;BME280;6244;51.460;7.090;2023-09-19T23:43:37;100023.03;;;17.65;64.10
12360;BME280;6244;51.460;7.090;2023-09-19T23:48:34;100027.22;;;17.67;64.01
12360;BME280;6244;51.460;7.090;2023-09-19T23:53:32;100020.09;;;17.68;63.96
12360;BME280;6244;51.460;7.090;2023-09-19T23:58:29;100022.06;;;17.66;64.10
